Time;durP1;ratioP1;P1;durP2;ratioP2;P2;SDS_P1;SDS_P2;PMS_P1;PMS_P2;Temp;Humidity;BMP_temperature;BMP_pressure;BME280_temperature;BME280_humidity;BME280_pressure;Samples;Min_cycle;Max_cycle;Signal;HPM_P1;HPM_P2
2020/12/22 00:00:53;;;;;;;1.20;1.10;;;11.40;99.90;;;;;;4957210;29;20186;-70
2020/12/22 00:03:18;;;;;;;0.90;0.70;;;11.40;99.90;;;;;;4957193;29;20221;-70
2020/12/22 00:05:45;;;;;;;1.87;1.30;;;11.50;99.90;;;;;;4957003;29;20297;-70
2020/12/22 00:08:14;;;;;;;1.67;1.57;;;11.60;99.90;;;;;;4956992;29;20177;-70
2020/12/22 00:10:39;;;;;;;1.10;1.00;;;11.70;99.90;;;;;;4956852;28;20964;-70
2020/12/22 00:13:05;;;;;;;1.50;1.10;;;11.80;99.90;;;;;;4956930;29;20434;-71
2020/12/22 00:15:30;;;;;;;1.20;1.10;;;11.80;99.90;;;;;;4956541;29;20273;-71
2020/12/22 00:17:56;;;;;;;1.40;1.13;;;11.80;99.90;;;;;;4956624;29;20182;-71
2020/12/22 00:20:21;;;;;;;1.17;1.00;;;11.80;99.90;;;;;;4956556;29;20183;-70
2020/12/22 00:26:09;;;;;;;2.80;1.20;;;11.80;99.90;;;;;;4956473;29;20205;-71
2020/12/22 00:28:34;;;;;;;1.63;1.50;;;11.90;99.90;;;;;;4956668;29;20422;-70
2020/12/22 00:31:00;;;;;;;1.77;1.60;;;11.80;99.90;;;;;;4956404;29;20634;-70
2020/12/22 00:33:25;;;;;;;2.37;1.10;;;11.90;99.90;;;;;;4956263;29;20182;-70
2020/12/22 00:35:51;;;;;;;1.20;1.10;;;12.00;99.90;;;;;;4956613;29;20178;-70
2020/12/22 00:38:16;;;;;;;1.17;0.90;;;11.90;99.90;;;;;;4956568;29;20181;-70
2020/12/22 00:40:42;;;;;;;1.50;1.40;;;12.00;99.90;;;;;;4956319;29;20646;-71
2020/12/22 00:46:51;;;;;;;1.47;1.37;;;12.10;99.90;;;;;;4948089;29;20245;-71
2020/12/22 00:49:17;;;;;;;2.13;1.17;;;12.20;99.90;;;;;;4956369;28;20488;-71
2020/12/22 00:51:42;;;;;;;1.40;0.97;;;12.10;99.90;;;;;;4956653;28;20770;-71
2020/12/22 00:57:30;;;;;;;1.37;1.27;;;12.20;99.90;;;;;;4957074;29;20206;-71
2020/12/22 00:59:55;;;;;;;1.00;0.90;;;12.40;99.90;;;;;;4957713;29;20434;-71
2020/12/22 01:02:21;;;;;;;2.07;1.20;;;12.30;99.90;;;;;;4963750;29;20630;-71
2020/12/22 01:04:47;;;;;;;1.70;1.13;;;12.40;99.90;;;;;;4954953;29;20456;-71
2020/12/22 01:07:13;;;;;;;1.23;1.00;;;12.50;99.90;;;;;;4955852;28;20214;-72
2020/12/22 01:09:38;;;;;;;1.10;0.80;;;12.60;99.90;;;;;;4956010;28;20430;-72
2020/12/22 01:12:05;;;;;;;2.07;1.50;;;12.70;99.90;;;;;;4955957;29;20183;-71
2020/12/22 01:14:31;;;;;;;1.80;1.10;;;12.70;99.90;;;;;;4956005;29;20170;-71
2020/12/22 01:16:56;;;;;;;1.30;0.93;;;12.80;99.90;;;;;;4955875;29;20472;-71
2020/12/22 01:19:22;;;;;;;1.57;1.00;;;12.70;99.90;;;;;;4955798;29;20266;-71
2020/12/22 01:21:52;;;;;;;1.63;1.10;;;12.70;99.90;;;;;;4955806;28;20171;-71
2020/12/22 01:24:17;;;;;;;0.90;0.80;;;12.70;99.90;;;;;;4955789;28;20202;-71
2020/12/22 01:26:43;;;;;;;2.70;1.63;;;12.90;99.90;;;;;;4955659;29;20465;-71
2020/12/22 01:29:08;;;;;;;1.40;1.10;;;12.90;99.90;;;;;;4955754;28;20174;-71
2020/12/22 01:31:34;;;;;;;1.83;1.27;;;12.90;99.90;;;;;;4955360;29;20630;-71
2020/12/22 01:33:59;;;;;;;1.30;1.13;;;12.90;99.90;;;;;;4955694;28;20185;-71
2020/12/22 01:36:26;;;;;;;1.23;1.10;;;12.90;99.90;;;;;;4955635;29;20222;-71
2020/12/22 01:38:51;;;;;;;2.07;1.33;;;12.80;99.90;;;;;;4955378;28;20166;-71
2020/12/22 01:41:18;;;;;;;1.40;1.30;;;12.90;99.90;;;;;;4955275;29;20439;-71
2020/12/22 01:43:59;;;;;;;1.50;1.40;;;12.90;99.90;;;;;;4955567;28;20183;-71
2020/12/22 01:46:29;;;;;;;2.40;1.57;;;13.00;99.90;;;;;;4955201;28;20478;-71
2020/12/22 01:48:55;;;;;;;1.43;1.33;;;12.90;99.90;;;;;;4955527;28;20834;-71
2020/12/22 01:51:22;;;;;;;1.10;1.00;;;12.90;99.90;;;;;;4955462;28;20429;-71
2020/12/22 01:53:47;;;;;;;2.63;1.30;;;12.90;99.90;;;;;;4957373;28;20191;-71
2020/12/22 01:56:13;;;;;;;1.60;1.30;;;12.90;99.90;;;;;;4959381;29;20437;-71
2020/12/22 01:58:38;;;;;;;1.50;1.10;;;12.90;99.90;;;;;;4959174;29;20724;-71
2020/12/22 02:01:04;;;;;;;1.10;1.00;;;12.80;99.90;;;;;;4959355;29;20193;-71
2020/12/22 02:03:29;;;;;;;4.60;1.60;;;12.90;99.90;;;;;;4959340;29;20198;-71
2020/12/22 02:05:55;;;;;;;1.20;1.10;;;12.80;99.90;;;;;;4959162;29;20654;-71
2020/12/22 02:08:20;;;;;;;1.17;1.07;;;12.80;99.90;;;;;;4959246;29;20615;-71
2020/12/22 06:32:44;;;;;;;0.90;0.70;;;14.90;99.90;;;;;;4914982;29;20901;-74
2020/12/22 06:35:31;;;;;;;2.40;0.80;;;14.90;99.90;;;;;;4916529;29;20528;-74
2020/12/22 06:37:58;;;;;;;0.90;0.70;;;14.80;99.90;;;;;;4916574;29;20453;-74
2020/12/22 06:40:54;;;;;;;2.03;0.90;;;14.80;99.90;;;;;;4919125;29;20514;-74
2020/12/22 06:43:39;;;;;;;2.47;1.00;;;14.80;99.90;;;;;;4920099;29;20436;-74
2020/12/22 06:46:08;;;;;;;2.80;0.83;;;14.70;99.90;;;;;;4919958;29;20475;-75
2020/12/22 06:48:46;;;;;;;1.00;0.80;;;14.70;99.90;;;;;;4919994;29;20423;-75
2020/12/22 06:51:32;;;;;;;2.47;1.00;;;14.70;99.90;;;;;;4919979;29;20439;-76
2020/12/22 06:53:59;;;;;;;2.47;0.90;;;14.60;99.90;;;;;;4919873;29;20424;-77
2020/12/22 06:56:43;;;;;;;2.50;1.10;;;14.50;99.90;;;;;;4919944;29;20769;-77
2020/12/22 06:59:10;;;;;;;1.93;1.00;;;14.50;99.90;;;;;;4919802;29;20438;-77
2020/12/22 07:01:38;;;;;;;2.37;1.10;;;14.50;99.90;;;;;;4919812;29;20483;-77
2020/12/22 07:04:20;;;;;;;1.70;0.77;;;14.60;99.90;;;;;;4918416;29;20436;-74
2020/12/22 07:07:02;;;;;;;1.07;0.87;;;14.60;99.90;;;;;;4919606;29;20475;-75
2020/12/22 07:09:41;;;;;;;2.80;1.30;;;14.60;99.90;;;;;;4937856;29;20466;-76
2020/12/22 07:12:09;;;;;;;2.80;1.00;;;14.60;99.90;;;;;;4938598;29;20418;-72
2020/12/22 07:14:40;;;;;;;2.57;0.90;;;14.60;99.90;;;;;;4938774;29;20533;-72
2020/12/22 07:17:06;;;;;;;1.50;1.07;;;14.60;99.90;;;;;;4931832;29;20801;-72
2020/12/22 07:19:36;;;;;;;2.00;1.20;;;14.70;99.90;;;;;;4919027;29;20802;-74
2020/12/22 07:22:04;;;;;;;2.57;0.97;;;14.70;99.90;;;;;;4919963;29;20186;-74
2020/12/22 07:24:34;;;;;;;1.83;1.10;;;14.70;99.90;;;;;;4919881;29;20480;-73
2020/12/22 07:27:01;;;;;;;1.10;1.00;;;14.70;99.90;;;;;;4919770;29;20472;-73
2020/12/22 07:29:27;;;;;;;1.60;1.00;;;14.70;99.90;;;;;;4919791;29;20435;-73
2020/12/22 07:31:52;;;;;;;1.30;1.00;;;14.80;99.90;;;;;;4919681;29;20439;-73
2020/12/22 07:34:19;;;;;;;1.40;1.00;;;14.80;99.90;;;;;;4919405;29;20670;-73
2020/12/22 07:40:09;;;;;;;1.30;1.10;;;14.70;99.90;;;;;;4919357;29;20483;-72
2020/12/22 07:42:35;;;;;;;1.20;1.00;;;14.70;99.90;;;;;;4919290;29;20778;-73
2020/12/22 07:45:07;;;;;;;2.03;1.33;;;14.60;99.90;;;;;;4919117;29;20180;-73
2020/12/22 07:47:34;;;;;;;1.10;1.00;;;14.60;99.90;;;;;;4919378;29;20184;-73
2020/12/22 07:50:18;;;;;;;1.07;0.97;;;14.60;99.90;;;;;;4919371;29;20455;-74
2020/12/22 07:52:54;;;;;;;2.30;0.90;;;14.50;99.90;;;;;;4919033;29;20431;-73
2020/12/22 07:58:42;;;;;;;0.97;0.80;;;14.60;99.90;;;;;;4919102;29;20459;-73
2020/12/22 08:01:09;;;;;;;1.43;0.83;;;14.60;99.90;;;;;;4919214;29;20427;-74
2020/12/22 08:03:34;;;;;;;1.40;0.83;;;14.60;99.90;;;;;;4919230;29;20297;-73
2020/12/22 08:06:01;;;;;;;1.07;0.73;;;14.60;99.90;;;;;;4918804;29;21019;-74
2020/12/22 08:08:27;;;;;;;1.93;1.03;;;14.60;99.90;;;;;;4918668;29;20219;-74
2020/12/22 08:10:52;;;;;;;0.90;0.70;;;14.60;99.90;;;;;;4918852;29;20427;-75
2020/12/22 08:13:21;;;;;;;1.30;1.17;;;14.60;99.90;;;;;;4918734;29;20172;-74
2020/12/22 08:15:47;;;;;;;1.00;0.80;;;14.50;99.90;;;;;;4918857;29;20588;-74
2020/12/22 08:18:13;;;;;;;5.00;0.90;;;14.50;99.90;;;;;;4918976;29;20427;-75
2020/12/22 08:20:39;;;;;;;2.23;0.97;;;14.50;99.90;;;;;;4918874;29;20781;-75
2020/12/22 08:23:06;;;;;;;1.33;1.00;;;14.60;99.90;;;;;;4918545;29;20608;-74
2020/12/22 08:25:32;;;;;;;3.47;0.93;;;14.60;99.90;;;;;;4918463;29;20556;-74
2020/12/22 08:31:25;;;;;;;1.50;0.93;;;14.70;99.90;;;;;;4918322;29;20400;-73
2020/12/22 08:33:55;;;;;;;1.40;1.10;;;14.60;99.90;;;;;;4918104;29;20954;-73
2020/12/22 08:39:44;;;;;;;1.40;1.10;;;14.70;99.90;;;;;;4918214;29;20927;-73
2020/12/22 08:42:10;;;;;;;1.30;1.00;;;14.60;99.90;;;;;;4918108;29;20987;-73
2020/12/22 08:44:37;;;;;;;3.87;1.10;;;14.70;99.90;;;;;;4918447;29;20457;-74
2020/12/22 08:47:13;;;;;;;3.20;1.07;;;14.60;99.90;;;;;;4918323;29;20475;-74
2020/12/22 08:49:39;;;;;;;2.70;0.83;;;14.60;99.90;;;;;;4918001;29;20934;-74
2020/12/22 08:55:26;;;;;;;2.07;1.00;;;14.60;99.90;;;;;;4917991;29;20419;-74
2020/12/22 08:57:52;;;;;;;2.80;0.90;;;14.70;99.90;;;;;;4918088;29;20916;-73
2020/12/22 09:00:18;;;;;;;3.13;1.10;;;14.70;99.90;;;;;;4916913;29;20206;-74
2020/12/22 09:06:05;;;;;;;1.87;1.10;;;14.70;99.90;;;;;;4917636;29;20246;-71
2020/12/22 09:08:30;;;;;;;1.63;1.20;;;14.60;99.90;;;;;;4917526;29;20892;-74
2020/12/22 09:10:56;;;;;;;1.87;1.00;;;14.60;99.90;;;;;;4917958;29;20180;-74
2020/12/22 09:16:50;;;;;;;3.10;1.40;;;14.60;99.90;;;;;;4918007;29;20234;-74
2020/12/22 09:19:47;;;;;;;3.53;1.47;;;14.50;99.90;;;;;;4918029;29;21002;-73
2020/12/22 09:22:14;;;;;;;4.83;1.43;;;14.50;99.90;;;;;;4915909;29;20435;-74
2020/12/22 09:24:41;;;;;;;2.13;1.50;;;14.50;99.90;;;;;;4917447;29;20435;-74
2020/12/22 09:27:09;;;;;;;2.97;1.30;;;14.50;99.90;;;;;;4917340;29;20471;-75
2020/12/22 09:29:36;;;;;;;3.00;1.20;;;14.50;99.90;;;;;;4917610;29;20507;-74
2020/12/22 09:32:03;;;;;;;1.83;1.27;;;14.60;99.90;;;;;;4917701;29;20436;-74
2020/12/22 09:34:31;;;;;;;2.00;1.40;;;14.50;99.90;;;;;;4917707;29;20427;-74
2020/12/22 09:37:00;;;;;;;2.20;1.03;;;14.60;99.90;;;;;;4917255;29;20452;-75
2020/12/22 09:39:28;;;;;;;2.00;1.20;;;14.60;99.90;;;;;;4917879;29;20787;-75
2020/12/22 09:41:56;;;;;;;2.60;1.30;;;14.60;99.90;;;;;;4917559;29;20435;-74
2020/12/22 09:47:43;;;;;;;3.03;1.80;;;14.60;99.90;;;;;;4917292;29;20456;-75
2020/12/22 09:50:09;;;;;;;2.23;1.37;;;14.60;99.90;;;;;;4916343;29;20420;-74
2020/12/22 09:52:34;;;;;;;2.03;1.50;;;14.60;99.90;;;;;;4917636;29;20538;-75
2020/12/22 09:55:00;;;;;;;1.90;1.80;;;14.70;99.90;;;;;;4917207;29;20577;-74
2020/12/22 09:57:25;;;;;;;2.50;1.53;;;14.60;99.90;;;;;;4917327;29;20179;-74
2020/12/22 09:59:51;;;;;;;5.83;1.73;;;14.70;99.90;;;;;;4917205;29;20191;-74
2020/12/22 10:05:38;;;;;;;2.80;1.87;;;14.70;99.90;;;;;;4916939;29;20295;-74
2020/12/22 10:08:04;;;;;;;4.40;1.80;;;14.80;99.90;;;;;;4916639;29;20499;-72
2020/12/22 10:10:29;;;;;;;2.13;1.60;;;14.70;99.90;;;;;;4917253;29;20547;-75
2020/12/22 10:16:22;;;;;;;5.33;2.10;;;14.70;99.90;;;;;;4920948;29;20642;-74
2020/12/22 10:18:48;;;;;;;3.00;1.80;;;14.90;99.90;;;;;;4920859;29;20503;-74
2020/12/22 10:21:17;;;;;;;2.03;1.63;;;14.80;99.90;;;;;;4920916;29;20431;-74
2020/12/22 10:23:43;;;;;;;2.90;1.87;;;14.80;99.90;;;;;;4920805;29;20432;-74
2020/12/22 10:26:11;;;;;;;6.10;1.90;;;14.80;99.90;;;;;;4920701;29;20467;-74
2020/12/22 10:28:39;;;;;;;4.13;1.50;;;14.80;99.90;;;;;;4920619;29;20455;-74
2020/12/22 10:31:06;;;;;;;2.70;1.70;;;14.80;99.90;;;;;;4920617;29;20447;-74
2020/12/22 10:33:32;;;;;;;2.30;1.30;;;14.90;99.90;;;;;;4920543;29;20420;-74
2020/12/22 10:35:57;;;;;;;2.27;1.70;;;14.80;99.90;;;;;;4920292;29;20439;-75
2020/12/22 10:38:23;;;;;;;2.10;1.80;;;14.90;99.90;;;;;;4920354;29;20176;-75
2020/12/22 10:40:49;;;;;;;1.87;1.60;;;14.90;99.90;;;;;;4920522;29;20180;-77
2020/12/22 10:46:37;;;;;;;1.93;1.80;;;15.00;99.90;;;;;;4920131;29;20538;-77
2020/12/22 10:49:02;;;;;;;6.93;2.50;;;14.90;99.90;;;;;;4920139;29;20948;-78
2020/12/22 10:51:31;;;;;;;2.70;1.50;;;14.90;99.90;;;;;;4920011;29;20176;-72
2020/12/22 10:53:57;;;;;;;2.10;1.97;;;15.00;99.90;;;;;;4919869;29;20175;-72
2020/12/22 10:56:22;;;;;;;2.10;1.40;;;14.90;99.90;;;;;;4920257;29;20486;-72
2020/12/22 10:58:48;;;;;;;4.70;2.03;;;14.90;99.90;;;;;;4920131;29;20415;-72
2020/12/22 11:01:14;;;;;;;4.60;2.10;;;14.90;99.90;;;;;;4920163;29;20188;-72
2020/12/22 11:03:41;;;;;;;2.87;2.60;;;14.90;99.90;;;;;;4920122;29;20179;-72
2020/12/22 11:06:19;;;;;;;6.37;2.13;;;14.80;99.90;;;;;;4920024;29;20478;-72
2020/12/22 11:08:45;;;;;;;2.17;2.07;;;14.80;99.90;;;;;;4919673;29;20467;-72
2020/12/22 11:11:11;;;;;;;5.20;2.70;;;14.90;99.90;;;;;;4920045;29;20534;-72
2020/12/22 11:13:37;;;;;;;5.40;2.43;;;14.90;99.90;;;;;;4921377;29;20432;-86
2020/12/22 11:16:05;;;;;;;6.20;2.70;;;14.90;99.90;;;;;;4923872;29;20552;-87
2020/12/22 11:18:30;;;;;;;4.10;2.47;;;15.00;99.90;;;;;;4922149;29;20558;-86
2020/12/22 11:20:58;;;;;;;6.03;2.10;;;15.00;99.90;;;;;;4922868;29;20889;-88
2020/12/22 11:23:24;;;;;;;3.53;1.93;;;15.00;99.90;;;;;;4922830;29;20507;-86
2020/12/22 11:25:49;;;;;;;2.73;1.73;;;15.00;99.90;;;;;;4919291;29;21057;-87
2020/12/22 11:28:15;;;;;;;4.50;2.30;;;15.00;99.90;;;;;;4922042;29;20183;-88
2020/12/22 11:30:40;;;;;;;3.17;2.90;;;15.00;99.90;;;;;;4921683;29;20208;-85
2020/12/22 11:36:28;;;;;;;3.70;2.70;;;15.00;99.90;;;;;;4919388;29;20188;-83
2020/12/22 11:42:15;;;;;;;2.83;1.90;;;15.00;99.90;;;;;;4919492;29;20188;-85
2020/12/22 11:44:40;;;;;;;3.40;1.83;;;15.00;99.90;;;;;;4920010;29;20424;-82
2020/12/22 11:47:06;;;;;;;3.17;1.80;;;15.10;99.90;;;;;;4919679;29;20271;-84
2020/12/22 11:49:31;;;;;;;3.77;2.40;;;15.10;99.90;;;;;;4919666;29;20185;-83
2020/12/22 11:51:57;;;;;;;1.50;1.40;;;15.00;99.90;;;;;;4919359;29;20189;-84
2020/12/22 11:54:24;;;;;;;1.63;1.53;;;15.10;99.90;;;;;;4919623;29;20184;-84
2020/12/22 11:56:50;;;;;;;2.80;2.10;;;15.00;99.90;;;;;;4918881;29;20476;-71
2020/12/22 11:59:16;;;;;;;1.70;1.40;;;15.00;99.90;;;;;;4918918;29;20963;-71
2020/12/22 12:05:04;;;;;;;2.87;1.93;;;15.00;99.90;;;;;;4918734;29;20300;-71
2020/12/22 12:07:29;;;;;;;1.80;1.33;;;14.90;99.90;;;;;;4918283;29;20566;-71
2020/12/22 12:09:55;;;;;;;2.17;1.50;;;14.90;99.90;;;;;;4918462;29;20172;-71
2020/12/22 12:15:42;;;;;;;4.80;1.70;;;14.90;99.90;;;;;;4918570;29;20647;-68
2020/12/22 12:18:08;;;;;;;2.70;1.70;;;14.90;99.90;;;;;;4918684;29;20513;-69
2020/12/22 12:20:33;;;;;;;1.63;1.33;;;14.80;99.90;;;;;;4919127;29;20195;-68
2020/12/22 12:22:59;;;;;;;3.23;1.70;;;14.90;99.90;;;;;;4919391;29;20172;-67
2020/12/22 12:25:24;;;;;;;2.93;1.83;;;14.80;99.90;;;;;;4918564;29;20184;-66
2020/12/22 12:27:50;;;;;;;1.80;1.40;;;14.70;99.90;;;;;;4918937;29;20184;-66
2020/12/22 12:33:37;;;;;;;1.50;1.07;;;14.90;99.90;;;;;;4918152;29;20203;-66
2020/12/22 12:36:03;;;;;;;1.97;1.63;;;14.90;99.90;;;;;;4918369;29;20456;-67
2020/12/22 12:41:50;;;;;;;1.47;1.20;;;14.70;99.90;;;;;;4918073;29;20251;-69
2020/12/22 12:44:19;;;;;;;3.20;1.40;;;14.60;99.90;;;;;;4918197;29;20495;-68
2020/12/22 12:46:45;;;;;;;2.00;1.30;;;14.60;99.90;;;;;;4918075;29;20588;-68
2020/12/22 12:49:12;;;;;;;3.93;1.37;;;14.60;99.90;;;;;;4917771;29;20522;-68
2020/12/22 12:51:44;;;;;;;2.53;1.40;;;14.70;99.90;;;;;;4917688;29;20179;-68
2020/12/22 12:57:31;;;;;;;2.27;1.50;;;14.70;99.90;;;;;;4917832;29;20443;-70
2020/12/22 12:59:57;;;;;;;1.80;1.00;;;14.70;99.90;;;;;;4917988;29;20471;-68
2020/12/22 13:02:22;;;;;;;1.77;1.23;;;14.70;99.90;;;;;;4918037;29;20187;-67
2020/12/22 13:04:48;;;;;;;1.30;0.93;;;14.80;99.90;;;;;;4917657;29;20179;-67
2020/12/22 13:07:13;;;;;;;1.97;0.90;;;14.80;99.90;;;;;;4917961;29;20226;-68
2020/12/22 13:09:39;;;;;;;1.17;1.00;;;14.70;99.90;;;;;;4917541;29;20219;-68
2020/12/22 13:12:05;;;;;;;1.77;1.10;;;14.70;99.90;;;;;;4917770;29;20267;-68
2020/12/22 13:17:53;;;;;;;2.10;1.20;;;14.70;99.90;;;;;;4917758;29;20411;-68
2020/12/22 13:20:18;;;;;;;2.60;1.20;;;14.70;99.90;;;;;;4917860;29;20539;-69
2020/12/22 13:22:44;;;;;;;1.47;0.87;;;14.80;99.90;;;;;;4917961;29;20226;-67
2020/12/22 13:25:09;;;;;;;2.10;1.00;;;14.80;99.90;;;;;;4917977;29;20207;-68
2020/12/22 13:27:35;;;;;;;1.60;1.20;;;14.80;99.90;;;;;;4917919;29;20191;-69
2020/12/22 13:30:00;;;;;;;1.70;1.10;;;14.80;99.90;;;;;;4917731;29;20631;-68
2020/12/22 13:35:48;;;;;;;3.63;1.67;;;14.70;99.90;;;;;;4919262;29;20167;-68
2020/12/22 13:38:14;;;;;;;3.57;1.43;;;14.80;99.90;;;;;;4919737;29;20423;-68
2020/12/22 13:40:39;;;;;;;2.67;1.40;;;14.80;99.90;;;;;;4918722;29;20176;-68
2020/12/22 13:43:05;;;;;;;1.80;1.27;;;14.70;99.90;;;;;;4918943;29;20255;-68
2020/12/22 13:45:30;;;;;;;6.37;1.23;;;14.70;99.90;;;;;;4919906;29;20247;-69
2020/12/22 13:47:56;;;;;;;2.40;1.33;;;14.80;99.90;;;;;;4919904;29;20279;-68
2020/12/22 13:50:21;;;;;;;3.90;1.63;;;14.80;99.90;;;;;;4917944;29;20194;-67
2020/12/22 13:52:47;;;;;;;2.10;1.37;;;14.80;99.90;;;;;;4917946;29;20189;-68
2020/12/22 13:55:13;;;;;;;5.40;2.63;;;14.80;99.90;;;;;;4919449;29;20180;-67
2020/12/22 13:57:39;;;;;;;4.93;1.33;;;14.70;99.90;;;;;;4921551;29;20186;-68
2020/12/22 14:00:06;;;;;;;3.67;1.50;;;14.70;99.90;;;;;;4921929;29;20435;-67
2020/12/22 14:02:31;;;;;;;2.63;1.40;;;14.80;99.90;;;;;;4918259;29;20235;-68
2020/12/22 14:04:57;;;;;;;1.37;1.20;;;14.80;99.90;;;;;;4919768;29;20831;-67
2020/12/22 14:07:22;;;;;;;1.50;1.20;;;14.70;99.90;;;;;;4918624;29;20573;-67
2020/12/22 14:09:48;;;;;;;3.90;1.33;;;14.80;99.90;;;;;;4919233;29;20179;-67
2020/12/22 14:12:13;;;;;;;3.17;1.43;;;14.90;99.90;;;;;;4926750;29;20202;-68
2020/12/22 14:14:39;;;;;;;2.23;2.00;;;14.80;99.90;;;;;;4917980;29;20179;-67
2020/12/22 14:17:05;;;;;;;2.10;1.33;;;14.80;99.90;;;;;;4917733;29;20207;-68
2020/12/22 14:19:31;;;;;;;2.20;1.27;;;14.70;99.90;;;;;;4917583;29;20214;-67
2020/12/22 14:21:56;;;;;;;1.50;0.90;;;14.80;99.90;;;;;;4917496;29;20439;-67
2020/12/22 14:24:22;;;;;;;6.40;1.27;;;14.80;99.90;;;;;;4917371;29;20184;-68
2020/12/22 14:26:47;;;;;;;1.73;1.00;;;14.80;99.90;;;;;;4917801;29;20215;-68
2020/12/22 14:29:13;;;;;;;2.03;1.37;;;14.70;99.90;;;;;;4917588;29;20180;-68
2020/12/22 14:31:39;;;;;;;3.80;1.10;;;14.70;99.90;;;;;;4917078;29;20666;-68
2020/12/22 14:34:05;;;;;;;1.33;1.00;;;14.70;99.90;;;;;;4916749;29;20184;-68
2020/12/22 14:36:31;;;;;;;2.50;1.10;;;14.70;99.90;;;;;;4917049;29;20854;-68
2020/12/22 14:38:56;;;;;;;1.33;1.23;;;14.60;99.90;;;;;;4917118;29;20507;-67
2020/12/22 14:41:22;;;;;;;6.60;1.10;;;14.60;99.90;;;;;;4916868;29;20187;-68
2020/12/22 14:43:49;;;;;;;2.20;0.93;;;14.60;99.90;;;;;;4917110;29;20184;-67
2020/12/22 14:46:15;;;;;;;3.13;1.23;;;14.60;99.90;;;;;;4916956;29;20224;-67
2020/12/22 14:48:43;;;;;;;2.27;1.10;;;14.80;99.90;;;;;;4917043;29;20791;-67
2020/12/22 14:51:08;;;;;;;15.87;1.20;;;14.60;99.90;;;;;;4917090;29;20475;-67
2020/12/22 14:53:34;;;;;;;2.40;1.17;;;14.60;99.90;;;;;;4917056;29;20475;-68
2020/12/22 14:56:08;;;;;;;1.93;1.30;;;14.60;99.90;;;;;;4917114;29;20184;-68
2020/12/22 14:58:34;;;;;;;6.00;2.13;;;14.50;99.90;;;;;;4916959;29;20195;-67
2020/12/22 15:01:00;;;;;;;1.70;1.50;;;14.50;99.90;;;;;;4916028;29;20432;-67
2020/12/22 15:03:25;;;;;;;3.37;3.10;;;14.40;99.90;;;;;;4920369;29;20450;-67
2020/12/22 15:05:51;;;;;;;5.00;2.90;;;14.40;99.90;;;;;;4920220;29;20208;-67
2020/12/22 15:08:16;;;;;;;7.93;3.20;;;14.40;99.90;;;;;;4919870;29;20687;-67
2020/12/22 15:10:42;;;;;;;4.40;3.47;;;14.40;99.90;;;;;;4920103;29;20219;-67
2020/12/22 15:13:07;;;;;;;4.13;3.73;;;14.30;99.90;;;;;;4920170;29;20180;-67
2020/12/22 15:15:33;;;;;;;4.07;3.70;;;14.40;99.90;;;;;;4920059;29;20655;-68
2020/12/22 15:17:58;;;;;;;4.37;4.07;;;14.40;99.90;;;;;;4919978;29;20258;-67
2020/12/22 15:20:24;;;;;;;5.40;4.90;;;14.30;99.90;;;;;;4919744;29;20752;-67
2020/12/22 15:22:49;;;;;;;5.20;4.70;;;14.30;99.90;;;;;;4920551;29;20271;-68
2020/12/22 15:25:15;;;;;;;4.73;4.33;;;14.30;99.90;;;;;;4919918;29;20271;-68
2020/12/22 15:31:02;;;;;;;4.82;4.32;;;14.30;99.90;;;;;;4917888;29;20524;-72
2020/12/22 15:33:28;;;;;;;4.20;3.87;;;14.30;99.90;;;;;;4919473;29;20180;-72
2020/12/22 15:35:55;;;;;;;3.80;3.50;;;14.40;99.90;;;;;;4919533;29;20184;-73
2020/12/22 15:38:21;;;;;;;4.17;3.77;;;14.30;99.90;;;;;;4919555;29;20180;-72
2020/12/22 15:40:46;;;;;;;5.20;3.90;;;14.30;99.90;;;;;;4919034;29;20442;-72
2020/12/22 15:46:33;;;;;;;6.87;5.10;;;14.20;99.90;;;;;;4919114;29;20283;-72
2020/12/22 15:48:59;;;;;;;4.37;4.07;;;14.20;99.90;;;;;;4918953;29;20428;-74
2020/12/22 15:51:24;;;;;;;6.23;5.67;;;14.20;99.90;;;;;;4919101;29;20184;-74
2020/12/22 15:57:12;;;;;;;5.17;4.67;;;14.10;99.90;;;;;;4919015;29;20167;-73
2020/12/22 15:59:37;;;;;;;12.10;5.53;;;14.10;99.90;;;;;;4919219;29;20440;-74
2020/12/22 16:02:03;;;;;;;12.70;5.90;;;14.10;99.90;;;;;;4919150;29;20188;-73
2020/12/22 16:04:28;;;;;;;12.77;4.70;;;14.00;99.90;;;;;;4918787;29;20191;-75
2020/12/22 16:06:54;;;;;;;6.43;4.60;;;14.10;99.90;;;;;;4918962;29;20217;-75
2020/12/22 16:09:20;;;;;;;9.10;6.03;;;14.10;99.90;;;;;;4918653;29;20227;-74
2020/12/22 16:11:45;;;;;;;9.43;6.47;;;14.00;99.90;;;;;;4918549;29;20187;-73
2020/12/22 16:14:11;;;;;;;11.60;7.50;;;14.00;99.90;;;;;;4918588;29;20180;-74
2020/12/22 16:16:37;;;;;;;7.63;5.90;;;14.00;99.90;;;;;;4918608;29;20175;-73
2020/12/22 16:19:03;;;;;;;6.10;5.30;;;14.00;99.90;;;;;;4918817;29;20203;-76
2020/12/22 16:21:29;;;;;;;11.87;6.33;;;14.00;99.90;;;;;;4918738;29;20183;-75
2020/12/22 16:23:54;;;;;;;8.53;6.30;;;14.00;99.90;;;;;;4918720;29;20435;-76
2020/12/22 16:26:20;;;;;;;7.80;6.80;;;14.00;99.90;;;;;;4918637;29;20239;-76
2020/12/22 16:32:08;;;;;;;9.20;6.00;;;13.90;99.90;;;;;;4918236;29;20408;-72
2020/12/22 16:34:33;;;;;;;8.60;5.90;;;13.90;99.90;;;;;;4918626;29;20589;-72
2020/12/22 16:40:21;;;;;;;7.90;7.17;;;14.00;99.90;;;;;;4918325;29;20167;-73
2020/12/22 16:46:08;;;;;;;12.60;7.40;;;13.90;99.90;;;;;;4918110;29;20235;-72
2020/12/22 16:48:35;;;;;;;6.80;6.13;;;13.90;99.90;;;;;;4918430;29;20428;-72
2020/12/22 16:54:22;;;;;;;13.03;9.73;;;13.90;99.90;;;;;;4918755;29;20437;-76
2020/12/22 17:00:10;;;;;;;10.67;9.47;;;14.00;99.90;;;;;;4918256;29;20163;-70
2020/12/22 17:02:35;;;;;;;18.03;11.00;;;14.00;99.90;;;;;;4916650;29;20956;-70
2020/12/22 17:05:01;;;;;;;12.43;11.13;;;14.00;99.90;;;;;;4918137;29;20172;-70
2020/12/22 17:14:49;;;;;;;13.50;10.57;;;13.90;99.90;;;;;;4918010;29;20423;-71
2020/12/22 17:22:08;;;;;;;18.75;12.00;;;14.00;99.90;;;;;;5106272;27;20544;-72
2020/12/22 17:24:34;;;;;;;17.83;11.37;;;14.00;99.90;;;;;;5094452;28;20177;-72
2020/12/22 17:27:00;;;;;;;15.27;11.70;;;14.10;99.90;;;;;;5103345;28;20666;-71
2020/12/22 17:29:25;;;;;;;16.73;11.80;;;14.10;99.90;;;;;;5090213;28;20174;-74
2020/12/22 17:31:51;;;;;;;10.23;9.13;;;14.00;99.90;;;;;;5104996;28;20173;-72
2020/12/22 17:34:17;;;;;;;11.57;9.00;;;14.00;99.90;;;;;;5093783;28;20268;-71
2020/12/22 17:36:43;;;;;;;12.27;10.30;;;14.00;99.90;;;;;;5105421;28;20181;-72
2020/12/22 17:39:08;;;;;;;10.30;9.30;;;13.90;99.90;;;;;;5098944;28;20475;-71
2020/12/22 17:41:34;;;;;;;10.90;9.43;;;13.90;99.90;;;;;;5097885;28;20549;-72
2020/12/22 17:44:00;;;;;;;13.10;9.87;;;13.80;99.90;;;;;;5104848;28;20177;-72
2020/12/22 17:46:25;;;;;;;12.00;9.63;;;13.80;99.90;;;;;;5092574;28;20185;-70
2020/12/22 17:48:51;;;;;;;11.07;9.73;;;13.70;99.90;;;;;;5103030;28;20166;-70
2020/12/22 17:51:17;;;;;;;14.13;9.90;;;13.70;99.90;;;;;;5098074;28;20537;-71
2020/12/22 17:53:43;;;;;;;10.20;8.37;;;13.60;99.90;;;;;;5095484;28;20257;-70
2020/12/22 17:56:16;;;;;;;9.07;8.13;;;13.60;99.90;;;;;;5105633;28;20530;-71
2020/12/22 17:58:43;;;;;;;8.17;7.10;;;13.50;99.90;;;;;;5093992;28;20257;-72
2020/12/22 18:01:08;;;;;;;7.90;6.20;;;13.50;99.90;;;;;;5100419;28;20517;-71
2020/12/22 18:03:34;;;;;;;5.77;5.27;;;13.40;99.90;;;;;;5100909;28;20411;-72
2020/12/22 18:05:59;;;;;;;7.37;5.40;;;13.40;99.90;;;;;;5093228;28;20235;-72
2020/12/22 18:08:25;;;;;;;9.80;5.80;;;13.40;99.90;;;;;;5105477;28;20184;-71
2020/12/22 18:10:50;;;;;;;8.03;6.17;;;13.30;99.90;;;;;;5094841;28;20416;-71
2020/12/22 18:13:15;;;;;;;7.47;5.47;;;13.30;99.90;;;;;;5099158;28;20652;-72
2020/12/22 18:15:43;;;;;;;7.30;5.83;;;13.30;99.90;;;;;;5102149;28;20534;-72
2020/12/22 18:18:11;;;;;;;6.17;5.30;;;13.30;99.90;;;;;;5092139;28;20569;-72
2020/12/22 18:20:36;;;;;;;5.27;4.77;;;13.30;99.90;;;;;;5104348;28;20981;-72
2020/12/22 18:23:02;;;;;;;4.83;4.43;;;13.20;99.90;;;;;;5096183;28;20434;-71
2020/12/22 18:25:27;;;;;;;10.47;5.10;;;13.20;99.90;;;;;;5097523;28;20177;-69
2020/12/22 18:27:53;;;;;;;6.20;5.30;;;13.20;99.90;;;;;;5103383;28;20181;-70
2020/12/22 18:30:20;;;;;;;7.73;5.30;;;13.20;99.90;;;;;;5093817;28;20633;-69
2020/12/22 18:32:45;;;;;;;10.90;5.90;;;13.20;99.90;;;;;;5079059;28;20197;-69
2020/12/22 18:35:12;;;;;;;8.50;6.00;;;13.20;99.90;;;;;;5091421;28;20844;-71
2020/12/22 18:37:39;;;;;;;5.77;5.03;;;13.20;99.90;;;;;;5078621;28;20178;-69
2020/12/22 18:40:04;;;;;;;6.03;5.43;;;13.20;99.90;;;;;;5089731;28;20931;-69
2020/12/22 18:42:30;;;;;;;10.93;6.33;;;13.20;99.90;;;;;;5075424;28;20523;-72
2020/12/22 18:44:58;;;;;;;11.87;5.70;;;13.10;99.90;;;;;;5074544;28;21057;-70
2020/12/22 18:47:28;;;;;;;6.10;5.50;;;13.10;99.90;;;;;;5074725;28;20428;-73
2020/12/22 18:49:53;;;;;;;9.00;4.53;;;13.10;99.90;;;;;;5094414;28;20428;-71
2020/12/22 18:52:19;;;;;;;5.50;3.67;;;13.10;99.90;;;;;;5094839;28;20914;-72
2020/12/22 18:54:44;;;;;;;5.20;4.17;;;13.10;99.90;;;;;;5093997;28;20165;-69
2020/12/22 18:57:10;;;;;;;6.53;4.80;;;13.10;99.90;;;;;;5074371;28;20186;-69
2020/12/22 18:59:35;;;;;;;7.50;4.53;;;13.10;99.90;;;;;;5074407;28;20558;-70
2020/12/22 19:02:01;;;;;;;9.17;4.77;;;13.10;99.90;;;;;;5074460;28;20210;-70